Time;durP1;ratioP1;P1;durP2;ratioP2;P2;SDS_P1;SDS_P2;PMS_P1;PMS_P2;Temp;Humidity;BMP_temperature;BMP_pressure;BME280_temperature;BME280_humidity;BME280_pressure;Samples;Min_cycle;Max_cycle;Signal;HPM_P1;HPM_P2
2022/04/05 00:00:36;;;;;;;73.53;33.07;;;11.20;95.40;;;;;;5016761;28;20452;-90
2022/04/05 00:03:02;;;;;;;71.05;29.70;;;11.20;95.40;;;;;;5016609;28;20574;-89
2022/04/05 00:05:28;;;;;;;72.97;32.03;;;11.20;95.20;;;;;;5016844;28;20631;-90
2022/04/05 00:07:54;;;;;;;78.47;32.30;;;11.30;95.30;;;;;;5017272;28;20180;-89
2022/04/05 00:10:21;;;;;;;67.25;28.88;;;11.20;95.10;;;;;;5016789;28;20185;-90
2022/04/05 00:12:47;;;;;;;65.47;28.58;;;11.30;95.20;;;;;;5017221;28;20206;-90
2022/04/05 00:15:13;;;;;;;71.65;28.98;;;11.20;95.00;;;;;;5017458;28;20536;-90
2022/04/05 00:17:39;;;;;;;66.78;28.38;;;11.30;95.70;;;;;;5016696;28;20303;-90
2022/04/05 00:20:07;;;;;;;78.78;30.05;;;11.40;94.80;;;;;;5033792;28;20178;-90
2022/04/05 00:22:33;;;;;;;66.18;30.05;;;11.50;94.80;;;;;;5015305;28;20206;-89
2022/04/05 00:24:58;;;;;;;77.53;29.52;;;11.50;94.50;;;;;;5015817;28;20200;-90
2022/04/05 00:27:24;;;;;;;64.20;27.30;;;11.40;94.30;;;;;;5033892;28;20182;-89
2022/04/05 00:29:50;;;;;;;55.30;31.30;;;11.30;94.10;;;;;;5016796;28;20556;-90
2022/04/05 00:32:16;;;;;;;66.23;30.20;;;11.30;94.20;;;;;;5016630;28;20444;-90
2022/04/05 00:34:41;;;;;;;70.33;31.17;;;11.40;94.20;;;;;;5017560;28;20209;-89
2022/04/05 00:37:07;;;;;;;55.73;28.47;;;11.50;94.30;;;;;;5017386;28;20204;-89
2022/04/05 00:39:33;;;;;;;67.28;31.33;;;11.50;94.20;;;;;;5018702;28;20181;-89
2022/04/05 00:41:59;;;;;;;70.80;29.10;;;11.50;94.10;;;;;;5016474;28;20189;-90
2022/04/05 00:44:25;;;;;;;62.20;28.27;;;11.40;93.90;;;;;;5016875;28;20198;-90
2022/04/05 00:46:52;;;;;;;66.00;27.95;;;11.30;94.10;;;;;;5033767;28;20252;-90
2022/04/05 00:49:31;;;;;;;55.95;28.52;;;11.30;95.10;;;;;;5015771;28;20638;-90
2022/04/05 00:52:01;;;;;;;60.70;25.25;;;11.40;94.40;;;;;;5032952;28;20257;-90
2022/04/05 00:54:30;;;;;;;69.97;27.15;;;11.50;94.50;;;;;;4998955;28;20193;-90
2022/04/05 00:56:57;;;;;;;58.50;27.42;;;11.50;94.40;;;;;;5015676;28;20201;-90
2022/04/05 00:59:25;;;;;;;55.08;25.33;;;11.50;94.20;;;;;;5015977;28;20545;-90
2022/04/05 01:01:54;;;;;;;55.95;25.65;;;11.40;94.10;;;;;;5016218;28;20181;-90
2022/04/05 01:04:21;;;;;;;57.60;24.48;;;11.40;94.20;;;;;;5016251;28;20214;-90
2022/04/05 01:06:49;;;;;;;52.70;25.63;;;11.30;94.20;;;;;;5019256;28;20174;-89
2022/04/05 01:09:15;;;;;;;59.92;28.15;;;11.40;94.20;;;;;;5025097;28;20182;-90
2022/04/05 01:11:41;;;;;;;54.97;26.73;;;11.30;94.20;;;;;;5033085;28;20221;-91
2022/04/05 01:14:07;;;;;;;50.58;25.77;;;11.40;94.40;;;;;;5030702;28;20197;-89
2022/04/05 01:16:33;;;;;;;45.03;24.50;;;11.40;94.40;;;;;;5017050;28;20193;-90
2022/04/05 01:18:59;;;;;;;45.65;23.88;;;11.40;94.20;;;;;;5016993;28;20425;-90
2022/04/05 01:21:27;;;;;;;58.38;23.55;;;11.40;94.20;;;;;;5036176;28;20177;-90
2022/04/05 01:24:09;;;;;;;45.00;25.02;;;11.40;94.10;;;;;;5030557;28;20218;-89
2022/04/05 01:26:42;;;;;;;49.17;22.63;;;11.30;94.20;;;;;;5016509;28;20604;-90
2022/04/05 01:29:09;;;;;;;51.53;21.60;;;11.40;94.30;;;;;;5015855;28;20252;-90
2022/04/05 01:31:43;;;;;;;61.92;21.98;;;11.40;94.30;;;;;;5015509;28;20209;-90
2022/04/05 01:34:09;;;;;;;49.53;21.05;;;11.40;94.20;;;;;;5032839;28;20203;-91
2022/04/05 01:36:43;;;;;;;42.65;20.60;;;11.50;94.20;;;;;;5015483;28;20548;-89
2022/04/05 01:39:15;;;;;;;38.78;20.40;;;11.40;94.10;;;;;;5015390;28;20236;-90
2022/04/05 01:41:41;;;;;;;42.63;19.90;;;11.40;94.10;;;;;;5015057;28;20245;-90
2022/04/05 01:44:08;;;;;;;39.40;19.30;;;11.40;94.10;;;;;;5031974;28;20763;-90
2022/04/05 01:46:34;;;;;;;37.08;19.60;;;11.30;94.20;;;;;;5033590;28;20409;-90
2022/04/05 01:49:00;;;;;;;46.17;19.60;;;11.30;94.20;;;;;;5034262;28;20208;-90
2022/04/05 01:51:25;;;;;;;36.23;17.47;;;11.40;94.30;;;;;;5015884;28;20455;-90
2022/04/05 01:53:51;;;;;;;43.20;18.77;;;11.50;94.30;;;;;;5037744;28;20502;-90
2022/04/05 01:56:17;;;;;;;48.80;18.47;;;11.50;94.20;;;;;;5030217;28;20428;-89
2022/04/05 01:58:42;;;;;;;29.73;16.50;;;11.50;94.20;;;;;;5028617;28;20186;-90
2022/04/05 02:01:08;;;;;;;36.07;16.00;;;11.50;94.20;;;;;;5019891;28;20193;-90
2022/04/05 02:03:34;;;;;;;41.80;18.00;;;11.50;94.00;;;;;;5019663;28;20296;-90
2022/04/05 02:06:00;;;;;;;38.27;17.53;;;11.50;93.90;;;;;;5019323;28;20185;-90
2022/04/05 02:08:25;;;;;;;29.70;15.50;;;11.50;93.90;;;;;;5020184;28;20181;-90
2022/04/05 02:10:51;;;;;;;30.73;15.07;;;11.50;93.90;;;;;;5019278;28;20811;-90
2022/04/05 02:13:17;;;;;;;33.17;15.53;;;11.50;94.00;;;;;;5036200;28;20209;-89
2022/04/05 02:15:43;;;;;;;27.67;14.33;;;11.40;93.90;;;;;;5018919;28;20185;-90
2022/04/05 02:18:08;;;;;;;28.53;13.20;;;11.50;94.00;;;;;;5037055;28;20178;-89
2022/04/05 02:20:34;;;;;;;29.13;15.00;;;11.50;93.90;;;;;;5018586;28;20665;-89
2022/04/05 02:23:00;;;;;;;28.98;13.45;;;11.50;93.90;;;;;;5018367;28;20709;-90
2022/04/05 02:25:26;;;;;;;27.93;13.37;;;11.50;93.80;;;;;;5018487;28;20193;-89
2022/04/05 02:27:52;;;;;;;28.40;14.90;;;11.40;93.80;;;;;;5018689;28;20887;-89
2022/04/05 02:30:18;;;;;;;26.55;13.80;;;11.50;94.00;;;;;;5020285;28;20749;-89
2022/04/05 02:32:44;;;;;;;26.47;13.10;;;11.40;93.90;;;;;;5018429;28;20213;-89
2022/04/05 02:35:11;;;;;;;25.85;14.30;;;11.40;94.00;;;;;;5035031;28;21001;-89
2022/04/05 02:37:37;;;;;;;28.20;13.30;;;11.50;94.00;;;;;;5035298;28;20276;-89
2022/04/05 02:40:04;;;;;;;24.83;12.50;;;11.50;94.10;;;;;;5017994;28;20202;-92
2022/04/05 02:42:30;;;;;;;27.88;13.45;;;11.40;93.80;;;;;;5016662;28;20205;-90
2022/04/05 02:44:56;;;;;;;30.90;11.50;;;11.50;94.00;;;;;;5017580;28;20170;-89
2022/04/05 02:47:22;;;;;;;27.60;13.03;;;11.40;93.90;;;;;;5017712;28;20272;-90
2022/04/05 02:49:49;;;;;;;31.48;13.20;;;11.50;94.00;;;;;;5017678;28;20503;-90
2022/04/05 02:52:17;;;;;;;27.15;12.88;;;11.50;93.90;;;;;;5017263;28;20632;-90
2022/04/05 02:54:43;;;;;;;21.05;11.82;;;11.50;93.90;;;;;;5016877;28;20174;-89
2022/04/05 02:57:09;;;;;;;25.40;12.20;;;11.50;93.80;;;;;;5017143;28;20186;-90
2022/04/05 02:59:35;;;;;;;21.10;11.73;;;11.50;93.80;;;;;;5017364;28;20424;-90
2022/04/05 03:02:01;;;;;;;25.97;12.27;;;11.60;93.70;;;;;;5017811;28;20235;-89
2022/04/05 03:04:26;;;;;;;23.57;11.40;;;11.50;93.60;;;;;;5017608;28;20206;-89
2022/04/05 03:06:53;;;;;;;19.93;10.87;;;11.50;93.60;;;;;;5019486;28;20413;-89
2022/04/05 03:09:26;;;;;;;20.02;10.80;;;11.50;93.60;;;;;;5021759;28;20315;-89
2022/04/05 03:11:52;;;;;;;20.27;10.27;;;11.50;93.50;;;;;;5007820;28;20207;-90
2022/04/05 03:14:18;;;;;;;21.23;10.87;;;11.50;93.50;;;;;;5026312;28;20674;-89
2022/04/05 03:16:43;;;;;;;25.83;10.93;;;11.50;93.50;;;;;;5022984;28;20209;-90
2022/04/05 03:19:09;;;;;;;15.07;10.30;;;11.50;93.40;;;;;;5019997;28;20178;-90
2022/04/05 03:21:35;;;;;;;19.20;9.77;;;11.50;93.30;;;;;;5021224;28;20254;-90
2022/04/05 03:24:01;;;;;;;21.03;10.27;;;11.50;93.40;;;;;;5045160;28;20483;-90
2022/04/05 03:26:26;;;;;;;27.40;11.83;;;11.50;93.50;;;;;;5031017;28;20209;-90
2022/04/05 03:28:52;;;;;;;24.07;11.70;;;11.40;93.50;;;;;;5024570;28;20178;-90
2022/04/05 03:31:18;;;;;;;19.53;9.90;;;11.40;93.60;;;;;;5022408;28;20569;-90
2022/04/05 03:33:43;;;;;;;30.23;12.30;;;11.40;93.60;;;;;;5029943;28;20619;-90
2022/04/05 03:36:09;;;;;;;13.97;8.77;;;11.30;93.70;;;;;;5003699;28;20185;-90
2022/04/05 03:38:35;;;;;;;23.13;10.40;;;11.40;93.70;;;;;;5019780;28;20762;-90
2022/04/05 03:41:00;;;;;;;16.40;9.40;;;11.40;93.80;;;;;;5018398;28;20178;-90
2022/04/05 03:43:26;;;;;;;17.30;10.13;;;11.40;93.80;;;;;;5017791;28;20220;-90
2022/04/05 03:45:53;;;;;;;26.63;11.07;;;11.30;94.60;;;;;;5017303;28;20213;-90
2022/04/05 03:48:18;;;;;;;18.33;9.60;;;11.30;93.90;;;;;;5018650;28;20193;-90
2022/04/05 03:50:44;;;;;;;21.67;9.20;;;11.20;93.90;;;;;;5017420;28;20178;-90
2022/04/05 03:53:10;;;;;;;18.63;9.37;;;11.20;94.10;;;;;;5017225;28;20618;-90
2022/04/05 03:55:36;;;;;;;26.48;10.65;;;11.20;94.20;;;;;;5017715;28;20177;-90
2022/04/05 03:58:02;;;;;;;21.90;9.23;;;11.20;94.30;;;;;;5001576;28;20329;-89
2022/04/05 04:00:29;;;;;;;20.48;9.63;;;11.20;94.50;;;;;;5017200;28;20182;-90
2022/04/05 04:02:54;;;;;;;15.32;8.30;;;11.20;94.60;;;;;;5017046;28;20206;-90
2022/04/05 04:05:20;;;;;;;19.20;9.73;;;11.20;94.50;;;;;;5017366;28;20174;-90
2022/04/05 04:07:50;;;;;;;15.30;9.27;;;11.30;94.60;;;;;;5016955;28;20940;-90
2022/04/05 04:10:17;;;;;;;19.42;9.30;;;11.30;94.60;;;;;;5017161;28;20408;-90
2022/04/05 04:12:43;;;;;;;22.42;9.88;;;11.40;94.60;;;;;;5017516;28;20209;-90
2022/04/05 04:15:09;;;;;;;20.67;9.07;;;11.40;94.40;;;;;;5017628;28;20264;-90
2022/04/05 04:17:35;;;;;;;19.75;10.00;;;11.50;94.50;;;;;;5003270;28;20235;-90
2022/04/05 04:20:01;;;;;;;20.75;9.00;;;11.40;94.30;;;;;;5018502;28;20177;-90
2022/04/05 04:22:27;;;;;;;16.83;9.47;;;11.40;94.30;;;;;;5017913;28;20201;-91
2022/04/05 04:24:56;;;;;;;21.83;9.53;;;11.40;94.30;;;;;;5017940;28;20178;-90
2022/04/05 04:27:22;;;;;;;20.02;9.05;;;11.40;94.30;;;;;;5036874;28;20664;-90
2022/04/05 04:29:48;;;;;;;18.88;9.30;;;11.40;94.30;;;;;;5023344;28;20661;-90
2022/04/05 04:32:13;;;;;;;18.10;10.23;;;11.40;94.20;;;;;;5024090;28;20236;-90
2022/04/05 04:34:39;;;;;;;20.33;12.50;;;11.40;94.00;;;;;;5015971;28;20178;-90
2022/04/05 04:37:05;;;;;;;17.03;10.67;;;11.40;94.00;;;;;;5016497;28;20184;-89
2022/04/05 04:39:33;;;;;;;23.88;13.23;;;11.40;94.00;;;;;;5016719;28;20662;-90
2022/04/05 04:41:59;;;;;;;20.50;11.82;;;11.40;94.00;;;;;;5020004;28;20188;-90
2022/04/05 04:44:25;;;;;;;20.87;13.40;;;11.40;94.10;;;;;;5019374;28;20197;-90
2022/04/05 04:46:51;;;;;;;31.38;14.02;;;11.30;94.00;;;;;;5035429;28;20436;-90
2022/04/05 04:49:17;;;;;;;26.63;14.80;;;11.30;94.00;;;;;;5020867;28;20182;-92
2022/04/05 04:51:43;;;;;;;25.75;15.45;;;11.40;94.00;;;;;;5025003;28;20253;-92
2022/04/05 04:54:09;;;;;;;29.63;15.90;;;11.50;94.00;;;;;;5037986;28;20216;-92
2022/04/05 04:56:35;;;;;;;33.70;17.00;;;11.50;93.90;;;;;;5041635;28;20185;-92
2022/04/05 04:59:00;;;;;;;33.53;16.70;;;11.50;93.80;;;;;;5017932;28;20182;-92
2022/04/05 05:01:26;;;;;;;37.77;18.10;;;11.40;93.90;;;;;;5017939;28;20427;-92
2022/04/05 05:03:52;;;;;;;34.60;15.93;;;11.30;94.00;;;;;;5016818;28;20225;-92
2022/04/05 05:06:18;;;;;;;35.10;17.58;;;11.40;94.00;;;;;;5035436;28;20227;-92
2022/04/05 05:08:44;;;;;;;42.87;18.60;;;11.40;94.00;;;;;;5021644;28;20190;-91
2022/04/05 05:11:11;;;;;;;31.80;17.67;;;11.50;94.00;;;;;;5025306;28;20416;-91
2022/04/05 05:13:37;;;;;;;31.90;18.10;;;11.50;94.00;;;;;;5039672;28;20205;-91
2022/04/05 05:16:03;;;;;;;29.08;15.63;;;11.50;94.00;;;;;;5023767;28;20777;-92
2022/04/05 05:18:29;;;;;;;37.47;18.95;;;11.50;93.90;;;;;;5016978;28;20296;-91
2022/04/05 05:20:55;;;;;;;32.70;16.88;;;11.50;93.80;;;;;;5016635;28;20174;-93
2022/04/05 05:23:21;;;;;;;33.88;17.52;;;11.50;93.80;;;;;;5016224;28;20693;-93
2022/04/05 05:25:48;;;;;;;30.55;15.00;;;11.50;93.90;;;;;;5016292;28;20180;-92
2022/04/05 05:28:14;;;;;;;24.27;13.23;;;11.40;93.60;;;;;;5017877;28;20185;-92
2022/04/05 05:30:40;;;;;;;31.92;15.05;;;11.40;93.50;;;;;;5019853;28;20189;-92
2022/04/05 05:33:06;;;;;;;23.08;12.23;;;11.40;93.60;;;;;;5019815;28;20198;-92
2022/04/05 05:35:33;;;;;;;23.90;12.40;;;11.60;93.50;;;;;;5019863;28;20185;-93
2022/04/05 05:37:59;;;;;;;24.40;13.05;;;11.40;93.20;;;;;;5038157;28;20462;-93
2022/04/05 05:40:25;;;;;;;25.15;13.43;;;11.50;93.30;;;;;;5019835;28;20192;-92
2022/04/05 05:42:59;;;;;;;18.70;11.82;;;11.60;93.30;;;;;;5019341;28;20743;-92
2022/04/05 05:45:27;;;;;;;19.27;11.00;;;11.50;93.10;;;;;;5019618;28;20184;-92
2022/04/05 05:47:53;;;;;;;16.48;10.82;;;11.50;93.10;;;;;;5003384;28;20291;-92
2022/04/05 05:50:19;;;;;;;24.60;11.25;;;11.60;93.10;;;;;;5019443;28;20549;-92
2022/04/05 05:52:45;;;;;;;20.25;11.32;;;11.50;93.00;;;;;;5023530;28;20232;-91
2022/04/05 05:55:13;;;;;;;20.17;10.63;;;11.50;93.00;;;;;;5027443;28;20182;-91
2022/04/05 05:57:39;;;;;;;24.48;10.95;;;11.50;92.90;;;;;;5019901;28;20170;-92
2022/04/05 06:00:08;;;;;;;22.97;10.30;;;11.50;93.00;;;;;;5018734;28;20672;-92
2022/04/05 06:02:41;;;;;;;18.25;9.48;;;11.60;92.80;;;;;;5018914;28;20439;-92
2022/04/05 06:05:08;;;;;;;19.75;8.50;;;11.60;92.70;;;;;;5037061;28;20173;-92
2022/04/05 06:07:34;;;;;;;15.93;9.52;;;11.60;92.50;;;;;;5019520;28;20205;-91
2022/04/05 06:10:05;;;;;;;18.52;9.05;;;11.60;92.50;;;;;;5023727;28;20186;-90
2022/04/05 06:12:32;;;;;;;25.65;8.25;;;11.60;92.40;;;;;;5028547;28;20202;-91
2022/04/05 06:14:57;;;;;;;15.52;9.13;;;11.60;92.40;;;;;;5038953;28;20178;-92
2022/04/05 06:17:24;;;;;;;11.67;9.37;;;11.60;92.20;;;;;;5019101;28;20181;-91
2022/04/05 06:19:51;;;;;;;19.45;10.30;;;11.70;92.20;;;;;;5018401;28;20173;-92
2022/04/05 06:22:18;;;;;;;20.13;9.90;;;11.60;92.00;;;;;;5024317;28;20200;-91
2022/04/05 06:24:46;;;;;;;18.83;9.90;;;11.60;92.00;;;;;;5057102;28;20197;-92
2022/04/05 06:27:13;;;;;;;18.02;9.55;;;11.60;92.00;;;;;;5047460;28;20193;-92
2022/04/05 06:29:39;;;;;;;17.45;8.93;;;11.70;92.10;;;;;;5021162;28;20258;-92
2022/04/05 06:32:30;;;;;;;13.68;8.77;;;11.70;91.90;;;;;;5020491;28;20563;-91
2022/04/05 06:34:55;;;;;;;18.80;10.13;;;11.80;91.80;;;;;;5037052;28;20619;-92
2022/04/05 06:37:21;;;;;;;18.67;10.20;;;11.70;91.70;;;;;;5018791;28;20266;-90
2022/04/05 06:39:48;;;;;;;26.30;11.77;;;11.70;91.80;;;;;;5034950;28;20186;-92
2022/04/05 06:42:14;;;;;;;20.05;11.18;;;11.80;91.70;;;;;;5036066;28;20252;-92
2022/04/05 06:44:39;;;;;;;21.25;11.65;;;11.90;91.70;;;;;;5017612;28;20210;-92
2022/04/05 06:47:06;;;;;;;20.30;11.43;;;11.90;91.60;;;;;;5017743;28;20268;-91
2022/04/05 06:49:32;;;;;;;16.92;12.63;;;11.90;91.30;;;;;;5036059;28;20615;-91
2022/04/05 06:51:58;;;;;;;23.50;12.23;;;11.90;91.30;;;;;;5018461;28;20194;-92
2022/04/05 06:54:24;;;;;;;24.67;13.47;;;11.80;91.20;;;;;;5035830;28;20635;-91
2022/04/05 06:56:50;;;;;;;25.90;14.10;;;11.80;91.30;;;;;;5018290;28;20794;-92
2022/04/05 06:59:16;;;;;;;25.07;15.00;;;11.90;91.40;;;;;;5018677;28;20178;-92
2022/04/05 07:01:42;;;;;;;20.47;13.57;;;11.80;91.30;;;;;;5018490;28;20697;-92
2022/04/05 07:04:07;;;;;;;20.60;13.20;;;11.80;91.40;;;;;;5018717;28;20209;-92
2022/04/05 07:06:33;;;;;;;17.23;12.47;;;11.80;91.50;;;;;;5002900;28;20417;-92
2022/04/05 07:08:59;;;;;;;21.43;11.97;;;11.90;91.60;;;;;;5023454;28;20239;-92
2022/04/05 07:11:25;;;;;;;23.70;11.00;;;12.00;91.40;;;;;;5023855;28;20570;-91
2022/04/05 07:13:51;;;;;;;19.80;10.80;;;12.00;91.20;;;;;;5022917;28;20279;-92
2022/04/05 07:16:18;;;;;;;19.52;11.70;;;12.10;91.30;;;;;;5019359;28;20185;-92
2022/04/05 07:18:44;;;;;;;19.63;11.88;;;11.90;91.20;;;;;;5036438;28;20170;-92
2022/04/05 07:21:11;;;;;;;17.83;12.17;;;12.10;91.50;;;;;;5018251;28;20186;-92
2022/04/05 07:23:37;;;;;;;18.52;11.68;;;12.10;91.20;;;;;;5017948;28;20468;-92
2022/04/05 07:26:03;;;;;;;15.02;11.65;;;12.10;91.20;;;;;;5035832;28;20178;-92
2022/04/05 07:28:29;;;;;;;20.83;11.32;;;12.20;91.10;;;;;;5018255;28;20556;-92
2022/04/05 07:30:55;;;;;;;15.98;10.63;;;12.20;90.80;;;;;;5018305;28;20173;-92
2022/04/05 07:33:21;;;;;;;16.73;9.80;;;12.30;90.80;;;;;;5035356;28;20293;-92
2022/04/05 07:35:47;;;;;;;15.70;10.30;;;12.10;90.70;;;;;;5016807;28;20248;-92
2022/04/05 07:38:12;;;;;;;24.13;12.50;;;12.10;90.80;;;;;;5019265;28;20181;-91
2022/04/05 07:40:48;;;;;;;18.70;10.47;;;12.00;90.80;;;;;;5038321;28;20996;-91
2022/04/05 07:43:22;;;;;;;16.08;11.30;;;12.00;91.00;;;;;;5017175;28;20851;-92
2022/04/05 07:45:49;;;;;;;14.52;10.32;;;12.00;91.10;;;;;;5017210;28;20174;-92
2022/04/05 07:48:16;;;;;;;15.98;10.80;;;12.10;91.10;;;;;;5018280;28;20182;-92
2022/04/05 07:50:42;;;;;;;16.23;11.70;;;12.20;91.00;;;;;;5019275;28;20273;-92
2022/04/05 07:53:08;;;;;;;15.05;11.15;;;12.10;90.90;;;;;;5038304;28;20237;-92
2022/04/05 07:55:33;;;;;;;15.10;10.90;;;12.20;91.00;;;;;;5020948;28;20261;-92
2022/04/05 07:57:59;;;;;;;20.17;11.97;;;12.30;91.10;;;;;;5022899;28;20181;-92
2022/04/05 08:00:27;;;;;;;18.47;10.20;;;12.40;91.60;;;;;;5022883;28;20200;-92
2022/04/05 08:02:52;;;;;;;17.77;10.15;;;12.30;90.60;;;;;;5019085;28;20436;-92
2022/04/05 08:05:19;;;;;;;13.97;9.63;;;12.40;90.60;;;;;;5039104;28;20630;-92
2022/04/05 08:07:46;;;;;;;15.20;9.88;;;12.40;90.50;;;;;;5025089;28;20558;-92
2022/04/05 08:10:13;;;;;;;12.82;8.90;;;12.40;90.90;;;;;;5024235;28;20181;-93
2022/04/05 08:12:49;;;;;;;22.52;8.88;;;12.50;90.10;;;;;;5026084;28;20201;-92
2022/04/05 08:15:20;;;;;;;12.13;9.15;;;12.60;89.80;;;;;;5025069;28;20188;-92
2022/04/05 08:17:47;;;;;;;9.70;7.80;;;12.60;89.40;;;;;;5050665;28;20223;-92
2022/04/05 08:20:14;;;;;;;15.55;8.00;;;12.70;89.40;;;;;;5017272;28;20178;-92
2022/04/05 08:22:40;;;;;;;12.55;8.65;;;12.80;89.00;;;;;;5030690;28;20213;-92
2022/04/05 08:25:06;;;;;;;12.85;8.23;;;12.70;88.70;;;;;;5037039;28;20209;-91
2022/04/05 08:27:33;;;;;;;9.43;7.50;;;12.90;88.80;;;;;;5019173;28;20236;-92
2022/04/05 08:30:00;;;;;;;16.17;7.00;;;13.00;88.60;;;;;;5016902;28;20236;-92
2022/04/05 08:32:27;;;;;;;11.27;8.38;;;13.00;88.00;;;;;;5034630;28;20190;-91
2022/04/05 08:34:53;;;;;;;9.25;7.60;;;13.00;87.90;;;;;;5034689;28;20530;-93
2022/04/05 08:37:19;;;;;;;8.20;6.87;;;12.90;87.80;;;;;;5017413;28;20181;-92
2022/04/05 08:39:44;;;;;;;15.40;8.13;;;13.00;87.70;;;;;;5017606;28;20197;-92
2022/04/05 08:42:12;;;;;;;9.37;8.47;;;12.80;87.60;;;;;;5017615;28;20862;-93
2022/04/05 08:44:38;;;;;;;14.85;8.88;;;12.70;88.00;;;;;;5034244;28;20980;-93
2022/04/05 08:47:04;;;;;;;8.40;7.00;;;12.60;88.20;;;;;;5018798;28;20605;-91
2022/04/05 08:49:31;;;;;;;14.53;7.53;;;12.70;88.40;;;;;;5019104;28;20269;-92
2022/04/05 08:51:57;;;;;;;7.30;6.60;;;12.80;88.50;;;;;;5023333;28;20460;-92
2022/04/05 08:54:23;;;;;;;9.65;8.50;;;12.70;88.50;;;;;;5030212;28;20188;-92
2022/04/05 08:56:50;;;;;;;10.73;8.43;;;12.70;88.30;;;;;;5028872;28;20534;-92
2022/04/05 08:59:16;;;;;;;8.15;7.13;;;12.70;88.10;;;;;;5027447;28;20674;-92
2022/04/05 09:01:43;;;;;;;11.13;7.47;;;12.70;88.20;;;;;;5018154;28;20182;-93
2022/04/05 09:04:10;;;;;;;7.63;6.93;;;12.70;88.10;;;;;;5020342;28;20313;-91
2022/04/05 09:06:37;;;;;;;7.35;6.65;;;12.70;88.00;;;;;;5021802;28;20201;-92
2022/04/05 09:09:16;;;;;;;9.98;7.47;;;12.90;88.10;;;;;;5024582;28;20261;-92
2022/04/05 09:11:48;;;;;;;10.65;7.82;;;13.00;87.80;;;;;;5020904;28;20269;-93
2022/04/05 09:14:14;;;;;;;8.82;6.78;;;13.00;87.50;;;;;;5039591;28;20259;-92
2022/04/05 09:16:40;;;;;;;6.80;6.10;;;13.10;87.20;;;;;;5022425;28;20181;-93
2022/04/05 09:19:15;;;;;;;7.00;5.40;;;13.10;86.70;;;;;;5053871;28;20265;-92
2022/04/05 09:21:52;;;;;;;10.20;7.28;;;13.10;86.80;;;;;;5028642;28;20415;-92
2022/04/05 09:24:18;;;;;;;8.25;7.50;;;13.30;86.80;;;;;;5042719;28;20205;-93
2022/04/05 09:26:44;;;;;;;8.15;6.20;;;13.30;86.30;;;;;;5034479;28;20171;-93
2022/04/05 09:29:10;;;;;;;7.97;6.20;;;13.40;85.80;;;;;;5022584;28;20259;-92
2022/04/05 09:31:48;;;;;;;7.65;6.57;;;13.50;85.80;;;;;;5018761;28;20225;-93
2022/04/05 09:34:19;;;;;;;7.93;7.10;;;13.40;85.40;;;;;;5017851;28;20213;-92
2022/04/05 09:36:50;;;;;;;8.43;7.63;;;13.40;85.20;;;;;;5021259;28;20545;-93
2022/04/05 09:39:21;;;;;;;12.07;8.23;;;13.60;85.30;;;;;;5021299;28;20182;-93
2022/04/05 09:42:00;;;;;;;12.52;7.97;;;13.40;85.10;;;;;;5021384;28;20182;-93
2022/04/05 09:44:34;;;;;;;13.10;7.93;;;13.30;85.60;;;;;;5020714;28;20217;-93
2022/04/05 09:47:14;;;;;;;9.85;8.85;;;13.20;85.70;;;;;;5020637;28;20249;-93
2022/04/05 09:49:45;;;;;;;10.75;8.23;;;13.10;85.80;;;;;;5020244;28;20626;-93
2022/04/05 09:52:35;;;;;;;11.75;8.60;;;13.00;86.20;;;;;;5037706;28;20215;-92
2022/04/05 09:55:15;;;;;;;10.00;8.05;;;13.30;87.00;;;;;;5020428;28;20634;-93
2022/04/05 09:57:42;;;;;;;7.97;7.18;;;13.60;87.00;;;;;;5021399;28;20287;-93
2022/04/05 10:00:17;;;;;;;8.88;7.90;;;13.60;86.20;;;;;;5019410;28;20277;-93
2022/04/05 10:03:04;;;;;;;8.38;7.18;;;13.60;85.70;;;;;;5003789;28;20201;-93
2022/04/05 10:05:31;;;;;;;7.78;6.95;;;13.80;85.50;;;;;;5018890;28;20248;-92
2022/04/05 10:07:58;;;;;;;10.18;6.65;;;13.90;85.20;;;;;;5019203;28;20181;-93
2022/04/05 10:10:24;;;;;;;7.22;5.90;;;13.80;84.60;;;;;;5019258;28;20627;-93
2022/04/05 10:12:51;;;;;;;7.88;6.88;;;14.00;84.60;;;;;;5018639;28;20749;-93
2022/04/05 10:15:18;;;;;;;14.57;7.10;;;14.20;84.10;;;;;;5019148;28;20174;-93
2022/04/05 10:17:45;;;;;;;7.82;6.22;;;14.00;83.70;;;;;;5019594;28;20688;-93
2022/04/05 10:20:13;;;;;;;6.68;6.07;;;14.10;83.70;;;;;;5019125;28;20509;-93
2022/04/05 10:22:40;;;;;;;7.30;6.60;;;14.10;83.50;;;;;;5018781;28;20197;-93
2022/04/05 10:25:08;;;;;;;12.73;7.00;;;14.00;83.60;;;;;;5002552;28;20304;-93
2022/04/05 10:27:34;;;;;;;7.90;7.10;;;14.10;84.10;;;;;;5018162;28;20178;-92
2022/04/05 10:30:10;;;;;;;8.23;6.82;;;14.10;84.30;;;;;;5018813;28;20335;-93
2022/04/05 10:32:41;;;;;;;10.98;7.38;;;14.30;84.50;;;;;;5037608;28;20185;-93
2022/04/05 10:35:08;;;;;;;8.38;6.78;;;14.40;84.30;;;;;;5022392;28;20170;-92
2022/04/05 10:37:35;;;;;;;8.75;6.85;;;14.20;83.60;;;;;;5024804;28;20248;-92
2022/04/05 10:40:01;;;;;;;6.93;6.05;;;14.20;83.80;;;;;;5018954;28;20185;-92
2022/04/05 10:42:42;;;;;;;5.63;5.10;;;14.10;84.10;;;;;;5018486;28;20201;-92
2022/04/05 10:45:13;;;;;;;8.95;6.40;;;13.90;84.00;;;;;;5018629;28;20178;-93
2022/04/05 16:12:26;;;;;;;11.05;8.15;;;14.80;77.10;;;;;;5033459;28;20273;-93
2022/04/05 16:14:52;;;;;;;14.77;8.27;;;14.90;77.50;;;;;;5017375;28;20178;-90
2022/04/05 16:17:18;;;;;;;15.25;8.40;;;14.80;77.60;;;;;;5034225;28;20668;-90
2022/04/05 16:19:44;;;;;;;15.27;7.60;;;14.80;77.90;;;;;;5017707;28;20201;-94
2022/04/05 16:22:11;;;;;;;14.20;8.27;;;14.80;78.10;;;;;;5019019;28;20715;-93
2022/04/05 16:24:37;;;;;;;12.93;8.48;;;14.80;78.30;;;;;;5018743;28;20232;-90
2022/04/05 16:27:04;;;;;;;14.40;8.30;;;14.90;78.40;;;;;;5019514;28;20180;-92
2022/04/05 16:29:30;;;;;;;10.88;9.23;;;14.80;78.80;;;;;;5021952;28;20233;-92
2022/04/05 16:31:56;;;;;;;12.77;7.87;;;14.70;79.30;;;;;;5022051;28;20198;-92
2022/04/05 16:34:22;;;;;;;9.90;8.25;;;14.70;79.80;;;;;;5019448;28;20212;-92
2022/04/05 16:36:48;;;;;;;12.23;8.47;;;14.80;79.80;;;;;;5016753;28;20262;-91
2022/04/05 16:39:14;;;;;;;13.07;9.23;;;14.90;79.50;;;;;;5016633;28;20673;-91
2022/04/05 16:41:41;;;;;;;18.65;9.93;;;14.80;79.40;;;;;;5017678;28;20846;-90
2022/04/05 16:44:08;;;;;;;15.30;8.60;;;14.60;79.40;;;;;;5018519;28;20696;-93
2022/04/05 16:46:36;;;;;;;12.30;7.72;;;14.50;79.60;;;;;;5020044;28;20182;-91
2022/04/05 16:49:03;;;;;;;11.02;8.20;;;14.40;79.50;;;;;;5038882;28;20632;-92
2022/04/05 16:51:30;;;;;;;11.60;8.48;;;14.30;79.40;;;;;;5022432;28;20174;-92
2022/04/05 16:53:56;;;;;;;13.73;7.97;;;14.20;78.60;;;;;;5024293;28;20188;-91
2022/04/05 16:56:23;;;;;;;12.05;7.60;;;14.10;78.50;;;;;;5022818;28;20178;-92
2022/04/05 16:58:49;;;;;;;10.02;7.45;;;14.10;78.60;;;;;;5022235;28;20198;-91
2022/04/05 17:01:15;;;;;;;12.25;8.25;;;14.20;78.20;;;;;;5021962;28;20181;-91
2022/04/05 17:03:42;;;;;;;8.68;7.47;;;14.20;77.50;;;;;;5019229;28;20205;-92
2022/04/05 17:06:11;;;;;;;10.45;8.02;;;14.30;77.00;;;;;;5018441;28;20729;-91
2022/04/05 17:08:40;;;;;;;14.60;8.65;;;14.40;76.30;;;;;;5016953;28;20202;-91
2022/04/05 17:11:15;;;;;;;11.32;8.00;;;14.30;76.30;;;;;;5017252;28;20197;-92
2022/04/05 17:13:43;;;;;;;8.85;7.68;;;14.40;76.70;;;;;;5017377;28;20263;-91
2022/04/05 17:16:10;;;;;;;12.50;7.65;;;14.40;76.80;;;;;;5035489;28;20182;-92
2022/04/05 17:18:36;;;;;;;11.63;6.90;;;14.40;76.50;;;;;;5018818;28;20216;-92
